AirNav   ProFlight Series 2 Aviation Headset
 
 497 users online  

05PN State Police Area III Heliport
Harrisburg, Pennsylvania, USA

GOING TO HARRISBURG?


FAA INFORMATION EFFECTIVE 18 JUNE 2020

Location

FAA Identifier: 05PN
Lat/Long: 40-18-00.3190N 076-51-28.9020W
40-18.005317N 076-51.481700W
40.3000886,-76.8580283
(estimated)
Elevation: 485 ft. / 148 m (estimated)
Variation: 10W (1985)
From city: 3 miles SW of HARRISBURG, PA
Time zone: UTC -4 (UTC -5 during Standard Time)
Zip code: 17110

Heliport Operations

Heliport use: Private use. Permission required prior to landing
Activation date: 06/1978
Control tower: no
ARTCC: NEW YORK CENTER
FSS: WILLIAMSPORT FLIGHT SERVICE STATION
Attendance: CONTINUOUS
Wind indicator: yes
Segmented circle: no

Heliport Communications

WX ASOS at CXY (5 nm S): PHONE 717-770-0880
WX ASOS at MDT (8 nm SE): 118.8 (717-944-1372)
WX ASOS at MUI (16 nm NE): 124.175 (717-861-2536)

Nearby radio navigation aids

VOR radial/distance  VOR name  Freq  Var
HARr101/9.7HARRISBURG VORTAC112.5010W
RAVr229/19.2RAVINE VORTAC114.6011W
LRPr302/28.1LANCASTER VOR/DME117.3009W
SEGr186/29.5SELINSGROVE VOR/DME110.4008W

 
NDB name  Hdg/Dist  Freq  Var  ID
ENOLA042/3.820411WMD -- -..
LATLE054/10.021911WCX -.-. -..-
BELLGROVE250/16.232810WBZJ -... --.. .---

Heliport Services

Runway Information

Helipad H1

Dimensions: 120 x 120 ft. / 37 x 37 m
Surface: asphalt, in fair condition
Latitude: 40-18.005317N
Longitude: 076-51.481700W
Elevation: 485.0 ft.
Traffic pattern: leftleft
Markings: none, in fair condition

Heliport Ownership and Management from official FAA records

Ownership: Publicly-owned
Owner: PENN STATE POLICE
1800 ELMERTON AVE.
HARRISBURG, PA 17110
Phone 717-787-7777
Manager: ROBERT P. HAGUE
P.O. BOX 444
HERSHEY, PA 17033
Phone 717-783-5511
171 EAST HERSHEY PARK DRIVE.

Additional Remarks

FOR CD CTC HARRISBURG APCH AT 800-932-0712.

Instrument Procedures

There are no published instrument procedures at 05PN.

Some nearby airports with instrument procedures:

KCXY - Capital City Airport (5 nm S)
KMDT - Harrisburg International Airport (8 nm SE)
58N - Reigle Field Airport (13 nm E)
KMUI - Muir Army Airfield (Fort Indiantown Gap) (16 nm NE)
N94 - Carlisle Airport (16 nm SW)
N71 - Donegal Springs Airpark (18 nm SE)
 
Loc | Ops | Rwys | IFR | FBO | Links
Com | Nav | Svcs | Stats | Notes
Area around 05PN (State Police Area III Heliport)
 
Road maps at: MapQuest Bing Google
 
Aerial photo
No photo
 
Sectional chart

 
Airport distance calculator
Flying to State Police Area III Heliport? Find the distance to fly.

From to 05PN

Sunrise and sunset
Times for 05-Jul-2020
 Local
(UTC-4)
 Zulu
(UTC)
Morning civil twilight05:1209:12
Sunrise05:4509:45
Sunset20:3900:39
Evening civil twilight21:1201:12

Current date and time
Zulu (UTC)  05-Jul-2020 04:31:43
Local (UTC-4)  05-Jul-2020 00:31:43
 
METAR
KCXY 
5nm S 
050356Z AUTO 26003KT 9SM CLR 23/17 A2994 RMK AO2 SLP137 T02280172
KMDT 
7nm SE 
050356Z 12005KT 10SM CLR 25/19 A2993 RMK AO2 SLP134 T02500189
KMUI 
15nm NE 
050356Z AUTO 00000KT 10SM CLR 21/17 A2995 RMK AO2 SLP141 T02140174
TAF
KMDT 
7nm SE 
042153Z 0422/0518 15006KT P6SM FEW060 FM050000 20003KT P6SM FEW070 FM050600 33002KT P6SM SKC
NOTAMs
Click for the latest NOTAMs
NOTAMs are issued by the DoD/FAA and will open in a separate window not controlled by AirNav.

 

 
 

Would you like to see your business listed on this page?

 If your business provides an interesting product or service to pilots, flight crews, aircraft, or users of the State Police Area III Heliport, you should consider listing it here.  To start the listing process, click on the button below
 
Add a business
 

Other Pages about State Police Area III Heliport

Update a link
 
Copyright © AirNav, LLC. All rights reserved. Privacy Policy  Contact